Time,TemperatureF,DewpointF,PressureIn,WindDirection,WindDirectionDegrees,WindSpeedMPH,WindSpeedGustMPH,Humidity,HourlyPrecipIn,Conditions,Clouds,dailyrainin,SoftwareType,DateUTC
2013-04-06 00:09:00,48.7,10.6,30.09,SSE,165,4.0,6.7,21,0.00,,,-99.99,FreeWX 2.04,2013-04-06 04:09:00,
2013-04-06 00:19:00,48.6,10.4,30.09,SSE,168,4.0,5.8,21,0.00,,,-99.99,FreeWX 2.04,2013-04-06 04:19:00,
2013-04-06 00:29:00,48.0,10.0,30.09,SSE,166,3.0,4.9,21,0.00,,,-99.99,FreeWX 2.04,2013-04-06 04:29:00,
2013-04-06 00:39:00,47.3,9.3,30.12,SSE,167,3.0,4.5,21,0.00,,,-99.99,FreeWX 2.04,2013-04-06 04:39:00,
2013-04-06 00:49:00,46.9,6.8,30.12,South,182,3.0,5.8,19,0.00,,,-99.99,FreeWX 2.04,2013-04-06 04:49:00,
2013-04-06 00:59:00,46.4,6.4,30.12,South,179,3.0,4.5,19,0.00,,,-99.99,FreeWX 2.04,2013-04-06 04:59:00,
2013-04-06 01:09:00,45.7,5.9,30.12,SSE,156,3.0,4.5,19,0.00,,,-99.99,FreeWX 2.04,2013-04-06 05:09:00,
2013-04-06 01:19:00,45.3,6.6,30.12,South,177,3.0,6.7,20,0.00,,,-99.99,FreeWX 2.04,2013-04-06 05:19:00,
2013-04-06 01:29:00,44.8,6.3,30.12,South,190,3.0,4.0,20,0.00,,,-99.99,FreeWX 2.04,2013-04-06 05:29:00,
2013-04-06 01:39:00,44.1,5.5,30.12,SSW,204,3.0,4.5,20,0.00,,,-99.99,FreeWX 2.04,2013-04-06 05:39:00,
2013-04-06 01:49:00,43.7,5.4,30.12,South,173,3.0,6.7,20,0.00,,,-99.99,FreeWX 2.04,2013-04-06 05:49:00,
2013-04-06 01:59:00,43.7,5.4,30.12,SW,215,2.0,4.0,20,0.00,,,-99.99,FreeWX 2.04,2013-04-06 05:59:00,
2013-04-06 02:09:00,43.2,4.8,30.12,SE,144,1.0,4.0,20,0.00,,,-99.99,FreeWX 2.04,2013-04-06 06:09:00,
2013-04-06 02:19:00,42.8,4.5,30.12,SSE,154,2.0,5.4,20,0.00,,,-99.99,FreeWX 2.04,2013-04-06 06:19:00,
2013-04-06 02:40:00,42.3,7.2,30.12,South,174,3.0,4.5,23,0.00,,,-99.99,FreeWX 2.04,2013-04-06 06:40:00,
2013-04-06 02:50:00,41.7,6.6,30.12,SSE,162,2.0,4.0,23,0.00,,,-99.99,FreeWX 2.04,2013-04-06 06:50:00,
2013-04-06 03:00:00,41.7,6.6,30.12,SSE,163,3.0,4.9,23,0.00,,,-99.99,FreeWX 2.04,2013-04-06 07:00:00,
2013-04-06 03:10:00,41.5,6.6,30.12,South,177,2.0,4.0,23,0.00,,,-99.99,FreeWX 2.04,2013-04-06 07:10:00,
2013-04-06 03:20:00,40.6,5.7,30.12,SSE,156,2.0,4.0,23,0.00,,,-99.99,FreeWX 2.04,2013-04-06 07:20:00,
2013-04-06 03:30:00,40.3,5.5,30.12,SSE,158,2.0,4.5,23,0.00,,,-99.99,FreeWX 2.04,2013-04-06 07:30:00,
2013-04-06 03:40:00,39.9,5.2,30.12,South,175,2.0,5.8,23,0.00,,,-99.99,FreeWX 2.04,2013-04-06 07:40:00,
2013-04-06 03:50:00,39.9,5.2,30.12,SSE,162,3.0,4.5,23,0.00,,,-99.99,FreeWX 2.04,2013-04-06 07:50:00,
2013-04-06 04:00:00,40.1,5.4,30.12,South,178,3.0,6.3,23,0.00,,,-99.99,FreeWX 2.04,2013-04-06 08:00:00,
2013-04-06 04:10:00,40.3,5.5,30.12,South,175,3.0,4.0,23,0.00,,,-99.99,FreeWX 2.04,2013-04-06 08:10:00,
2013-04-06 04:20:00,40.1,5.4,30.12,South,184,3.0,4.5,23,0.00,,,-99.99,FreeWX 2.04,2013-04-06 08:20:00,
2013-04-06 04:30:00,39.7,5.0,30.12,South,185,1.0,4.0,23,0.00,,,-99.99,FreeWX 2.04,2013-04-06 08:30:00,
2013-04-06 04:40:00,38.8,4.3,30.12,North,-999,0.0,0.0,23,0.00,,,-99.99,FreeWX 2.04,2013-04-06 08:40:00,
2013-04-06 04:50:00,38.3,3.7,30.15,North,-999,0.0,3.1,23,0.00,,,-99.99,FreeWX 2.04,2013-04-06 08:50:00,
2013-04-06 05:00:00,37.9,4.5,30.15,North,-999,0.0,0.0,24,0.00,,,-99.99,FreeWX 2.04,2013-04-06 09:00:00,
2013-04-06 05:11:00,37.6,4.1,30.15,South,185,1.0,3.1,24,0.00,,,-99.99,FreeWX 2.04,2013-04-06 09:11:00,
2013-04-06 05:21:00,37.0,3.6,30.15,North,-999,0.0,3.1,24,0.00,,,-99.99,FreeWX 2.04,2013-04-06 09:21:00,
2013-04-06 05:31:00,36.3,5.5,30.15,North,-999,0.0,0.0,27,0.00,,,-99.99,FreeWX 2.04,2013-04-06 09:31:00,
2013-04-06 05:41:00,35.8,5.2,30.15,North,-999,0.0,0.0,27,0.00,,,-99.99,FreeWX 2.04,2013-04-06 09:41:00,
2013-04-06 05:51:00,35.6,5.0,30.15,North,-999,0.0,0.0,27,0.00,,,-99.99,FreeWX 2.04,2013-04-06 09:51:00,
2013-04-06 06:11:00,35.1,6.1,30.15,North,-999,0.0,0.0,29,0.00,,,-99.99,FreeWX 2.04,2013-04-06 10:11:00,
2013-04-06 06:21:00,34.9,5.9,30.15,North,-999,0.0,0.0,29,0.00,,,-99.99,FreeWX 2.04,2013-04-06 10:21:00,
2013-04-06 06:31:00,34.9,6.6,30.15,North,-999,0.0,0.0,30,0.00,,,-99.99,FreeWX 2.04,2013-04-06 10:31:00,
2013-04-06 06:41:00,34.7,6.4,30.15,North,-999,0.0,0.0,30,0.00,,,-99.99,FreeWX 2.04,2013-04-06 10:41:00,
2013-04-06 06:51:00,34.3,7.5,30.18,North,-999,0.0,3.1,32,0.00,,,-99.99,FreeWX 2.04,2013-04-06 10:51:00,
2013-04-06 07:01:00,33.6,6.3,30.15,North,-999,0.0,2.7,31,0.00,,,-99.99,FreeWX 2.04,2013-04-06 11:01:00,
2013-04-06 07:11:00,33.3,6.6,30.15,North,-999,0.0,0.0,32,0.00,,,-99.99,FreeWX 2.04,2013-04-06 11:11:00,
2013-04-06 07:21:00,33.3,7.3,30.18,North,-999,0.0,0.0,33,0.00,,,-99.99,FreeWX 2.04,2013-04-06 11:21:00,
2013-04-06 07:31:00,33.4,8.1,30.18,North,-999,0.0,0.0,34,0.00,,,-99.99,FreeWX 2.04,2013-04-06 11:31:00,
2013-04-06 07:52:00,34.2,10.0,30.18,North,-999,0.0,0.0,36,0.00,,,-99.99,FreeWX 2.04,2013-04-06 11:52:00,
2013-04-06 08:02:00,35.1,12.6,30.18,North,-999,0.0,0.0,39,0.00,,,-99.99,FreeWX 2.04,2013-04-06 12:02:00,
2013-04-06 08:12:00,36.0,12.9,30.18,North,-999,0.0,0.0,38,0.00,,,-99.99,FreeWX 2.04,2013-04-06 12:12:00,
2013-04-06 08:22:00,37.6,14.9,30.21,North,-999,0.0,5.8,39,0.00,,,-99.99,FreeWX 2.04,2013-04-06 12:22:00,
2013-04-06 08:32:00,39.0,15.6,30.21,North,-999,0.0,3.1,38,0.00,,,-99.99,FreeWX 2.04,2013-04-06 12:32:00,
2013-04-06 08:42:00,40.3,12.7,30.21,NNW,328,3.0,7.4,32,0.00,,,-99.99,FreeWX 2.04,2013-04-06 12:42:00,
2013-04-06 08:52:00,42.1,8.8,30.21,NNW,339,4.0,6.7,25,0.00,,,-99.99,FreeWX 2.04,2013-04-06 12:52:00,
2013-04-06 09:02:00,43.3,9.9,30.21,NNW,336,4.0,6.9,25,0.00,,,-99.99,FreeWX 2.04,2013-04-06 13:02:00,
2013-04-06 09:12:00,44.4,8.1,30.21,NNW,330,5.0,8.7,22,0.00,,,-99.99,FreeWX 2.04,2013-04-06 13:12:00,
2013-04-06 09:22:00,45.5,9.0,30.21,NNW,337,4.0,7.4,22,0.00,,,-99.99,FreeWX 2.04,2013-04-06 13:22:00,
2013-04-06 09:32:00,46.8,10.0,30.21,NNW,337,4.0,8.3,22,0.00,,,-99.99,FreeWX 2.04,2013-04-06 13:32:00,
2013-04-06 09:42:00,47.3,9.3,30.21,NNW,338,5.0,9.2,21,0.00,,,-99.99,FreeWX 2.04,2013-04-06 13:42:00,
2013-04-06 09:52:00,48.2,10.0,30.21,NNW,334,5.0,9.2,21,0.00,,,-99.99,FreeWX 2.04,2013-04-06 13:52:00,
2013-04-06 10:02:00,49.5,11.1,30.21,NNW,341,4.0,6.9,21,0.00,,,-99.99,FreeWX 2.04,2013-04-06 14:02:00,
2013-04-06 10:12:00,49.8,11.5,30.21,NNW,334,4.0,8.3,21,0.00,,,-99.99,FreeWX 2.04,2013-04-06 14:12:00,
2013-04-06 10:22:00,51.4,12.7,30.18,NNW,335,4.0,6.9,21,0.00,,,-99.99,FreeWX 2.04,2013-04-06 14:22:00,
2013-04-06 10:32:00,53.1,13.1,30.18,NNW,339,3.0,5.8,20,0.00,,,-99.99,FreeWX 2.04,2013-04-06 14:32:00,
2013-04-06 10:43:00,53.4,13.5,30.18,North,349,3.0,6.7,20,0.00,,,-99.99,FreeWX 2.04,2013-04-06 14:43:00,
2013-04-06 10:53:00,54.7,14.4,30.18,NW,310,4.0,7.8,20,0.00,,,-99.99,FreeWX 2.04,2013-04-06 14:53:00,
2013-04-06 11:03:00,56.1,15.6,30.18,NNW,335,4.0,8.7,20,0.00,,,-99.99,FreeWX 2.04,2013-04-06 15:03:00,
2013-04-06 11:13:00,57.6,15.6,30.18,NNW,346,3.0,7.8,19,0.00,,,-99.99,FreeWX 2.04,2013-04-06 15:13:00,
2013-04-06 11:23:00,57.2,15.3,30.18,NNW,346,4.0,7.8,19,0.00,,,-99.99,FreeWX 2.04,2013-04-06 15:23:00,
2013-04-06 11:33:00,58.8,16.7,30.18,NNW,341,5.0,9.2,19,0.00,,,-99.99,FreeWX 2.04,2013-04-06 15:33:00,
2013-04-06 11:43:00,59.2,16.9,30.18,NW,325,5.0,9.6,19,0.00,,,-99.99,FreeWX 2.04,2013-04-06 15:43:00,
2013-04-06 11:53:00,61.0,18.5,30.15,NNW,339,5.0,10.5,19,0.00,,,-99.99,FreeWX 2.04,2013-04-06 15:53:00,
2013-04-06 12:03:00,62.4,18.3,30.15,NNW,343,5.0,11.2,18,0.00,,,-99.99,FreeWX 2.04,2013-04-06 16:03:00,
2013-04-06 12:13:00,63.3,19.0,30.15,North,354,4.0,11.2,18,0.00,,,-99.99,FreeWX 2.04,2013-04-06 16:13:00,
2013-04-06 12:23:00,64.9,20.5,30.15,NNW,343,6.0,9.6,18,0.00,,,-99.99,FreeWX 2.04,2013-04-06 16:23:00,
2013-04-06 12:33:00,65.3,19.4,30.15,North,359,4.0,8.3,17,0.00,,,-99.99,FreeWX 2.04,2013-04-06 16:33:00,
2013-04-06 12:43:00,66.0,19.9,30.15,NNW,333,5.0,9.2,17,0.00,,,-99.99,FreeWX 2.04,2013-04-06 16:43:00,
2013-04-06 12:53:00,67.3,21.0,30.15,NNW,333,5.0,9.6,17,0.00,,,-99.99,FreeWX 2.04,2013-04-06 16:53:00,
2013-04-06 13:03:00,67.1,20.8,30.12,NNW,344,4.0,7.4,17,0.00,,,-99.99,FreeWX 2.04,2013-04-06 17:03:00,
2013-04-06 13:13:00,68.4,21.9,30.12,NNW,346,5.0,10.5,17,0.00,,,-99.99,FreeWX 2.04,2013-04-06 17:13:00,
2013-04-06 13:23:00,69.1,22.5,30.12,NNW,343,6.0,12.1,17,0.00,,,-99.99,FreeWX 2.04,2013-04-06 17:23:00,
2013-04-06 13:33:00,69.8,23.0,30.12,North,2,4.0,10.1,17,0.00,,,-99.99,FreeWX 2.04,2013-04-06 17:33:00,
2013-04-06 13:43:00,70.0,23.2,30.12,North,359,6.0,12.1,17,0.00,,,-99.99,FreeWX 2.04,2013-04-06 17:43:00,
2013-04-06 13:53:00,70.3,23.5,30.12,NNW,346,5.0,10.5,17,0.00,,,-99.99,FreeWX 2.04,2013-04-06 17:53:00,
2013-04-06 14:03:00,71.1,22.6,30.09,NNW,344,4.0,6.9,16,0.00,,,-99.99,FreeWX 2.04,2013-04-06 18:03:00,
2013-04-06 14:13:00,72.0,23.4,30.09,NNW,344,6.0,10.1,16,0.00,,,-99.99,FreeWX 2.04,2013-04-06 18:13:00,
2013-04-06 14:23:00,71.2,22.8,30.09,NNW,339,5.0,9.6,16,0.00,,,-99.99,FreeWX 2.04,2013-04-06 18:23:00,
2013-04-06 14:33:00,72.3,23.5,30.09,North,355,5.0,11.2,16,0.00,,,-99.99,FreeWX 2.04,2013-04-06 18:33:00,
2013-04-06 14:43:00,73.8,24.8,30.09,NNW,346,4.0,9.2,16,0.00,,,-99.99,FreeWX 2.04,2013-04-06 18:43:00,
2013-04-06 14:53:00,73.9,25.0,30.09,NNW,343,5.0,12.1,16,0.00,,,-99.99,FreeWX 2.04,2013-04-06 18:53:00,
2013-04-06 15:03:00,73.4,24.4,30.06,NNW,345,6.0,11.6,16,0.00,,,-99.99,FreeWX 2.04,2013-04-06 19:03:00,
2013-04-06 15:13:00,72.7,23.9,30.06,North,6,4.0,12.1,16,0.00,,,-99.99,FreeWX 2.04,2013-04-06 19:13:00,
2013-04-06 15:23:00,73.6,24.6,30.06,North,355,4.0,7.8,16,0.00,,,-99.99,FreeWX 2.04,2013-04-06 19:23:00,
2013-04-06 15:33:00,74.7,23.9,30.06,North,354,4.0,8.7,15,0.00,,,-99.99,FreeWX 2.04,2013-04-06 19:33:00,
2013-04-06 15:43:00,74.8,24.1,30.06,NNW,348,4.0,8.3,15,0.00,,,-99.99,FreeWX 2.04,2013-04-06 19:43:00,
2013-04-06 16:03:00,74.7,23.9,30.03,North,355,3.0,8.3,15,0.00,,,-99.99,FreeWX 2.04,2013-04-06 20:03:00,
2013-04-06 16:24:00,74.1,25.0,30.03,NNW,344,4.0,9.6,16,0.00,,,-99.99,FreeWX 2.04,2013-04-06 20:24:00,
2013-04-06 16:34:00,73.9,25.0,30.03,NNW,344,5.0,10.5,16,0.00,,,-99.99,FreeWX 2.04,2013-04-06 20:34:00,
2013-04-06 16:44:00,73.4,24.4,30.03,North,349,4.0,8.3,16,0.00,,,-99.99,FreeWX 2.04,2013-04-06 20:44:00,
2013-04-06 16:54:00,73.0,24.3,30.00,North,352,4.0,6.9,16,0.00,,,-99.99,FreeWX 2.04,2013-04-06 20:54:00,
2013-04-06 17:04:00,73.0,24.3,30.00,North,358,4.0,7.4,16,0.00,,,-99.99,FreeWX 2.04,2013-04-06 21:04:00,
2013-04-06 17:14:00,72.5,23.7,30.00,North,350,4.0,6.9,16,0.00,,,-99.99,FreeWX 2.04,2013-04-06 21:14:00,
2013-04-06 17:24:00,71.4,22.8,30.00,NNW,347,4.0,10.5,16,0.00,,,-99.99,FreeWX 2.04,2013-04-06 21:24:00,
2013-04-06 17:34:00,71.2,22.8,30.00,NNW,348,5.0,9.2,16,0.00,,,-99.99,FreeWX 2.04,2013-04-06 21:34:00,
2013-04-06 17:54:00,71.1,22.6,30.00,North,350,3.0,5.8,16,0.00,,,-99.99,FreeWX 2.04,2013-04-06 21:54:00,
2013-04-06 18:04:00,70.7,22.3,30.00,North,355,4.0,7.8,16,0.00,,,-99.99,FreeWX 2.04,2013-04-06 22:04:00,
2013-04-06 18:14:00,70.3,23.5,30.00,NNW,348,4.0,7.4,17,0.00,,,-99.99,FreeWX 2.04,2013-04-06 22:14:00,
2013-04-06 18:24:00,70.2,23.4,30.00,NNW,345,4.0,10.1,17,0.00,,,-99.99,FreeWX 2.04,2013-04-06 22:24:00,
2013-04-06 18:35:00,69.6,22.8,30.00,NNW,343,5.0,7.8,17,0.00,,,-99.99,FreeWX 2.04,2013-04-06 22:35:00,
2013-04-06 18:45:00,69.3,22.6,30.00,NNW,337,4.0,6.9,17,0.00,,,-99.99,FreeWX 2.04,2013-04-06 22:45:00,
2013-04-06 18:55:00,68.9,22.3,30.00,NNW,344,4.0,6.3,17,0.00,,,-99.99,FreeWX 2.04,2013-04-06 22:55:00,
2013-04-06 19:05:00,68.4,21.9,29.97,NNW,343,4.0,7.8,17,0.00,,,-99.99,FreeWX 2.04,2013-04-06 23:05:00,
2013-04-06 19:15:00,67.6,21.2,29.97,NNW,340,4.0,6.3,17,0.00,,,-99.99,FreeWX 2.04,2013-04-06 23:15:00,
2013-04-06 19:25:00,67.1,20.8,29.97,NNW,337,4.0,6.3,17,0.00,,,-99.99,FreeWX 2.04,2013-04-06 23:25:00,
2013-04-06 19:35:00,66.6,20.5,29.97,NNW,345,2.0,6.3,17,0.00,,,-99.99,FreeWX 2.04,2013-04-06 23:35:00,
2013-04-06 19:45:00,65.7,19.8,29.97,North,-999,0.0,4.5,17,0.00,,,-99.99,FreeWX 2.04,2013-04-06 23:45:00,
2013-04-06 19:55:00,64.8,20.3,29.97,North,-999,0.0,0.0,18,0.00,,,-99.99,FreeWX 2.04,2013-04-06 23:55:00,
2013-04-06 20:05:00,63.9,19.6,29.97,North,-999,0.0,2.7,18,0.00,,,-99.99,FreeWX 2.04,2013-04-07 00:05:00,
2013-04-06 20:15:00,63.1,19.0,29.97,North,-999,0.0,0.0,18,0.00,,,-99.99,FreeWX 2.04,2013-04-07 00:15:00,
2013-04-06 20:25:00,62.4,18.3,29.97,North,-999,0.0,0.0,18,0.00,,,-99.99,FreeWX 2.04,2013-04-07 00:25:00,
2013-04-06 20:35:00,61.7,17.8,29.97,North,-999,0.0,0.0,18,0.00,,,-99.99,FreeWX 2.04,2013-04-07 00:35:00,
2013-04-06 20:45:00,61.0,18.5,29.97,North,-999,0.0,0.0,19,0.00,,,-99.99,FreeWX 2.04,2013-04-07 00:45:00,
2013-04-06 20:55:00,60.3,17.8,29.97,North,-999,0.0,0.0,19,0.00,,,-99.99,FreeWX 2.04,2013-04-07 00:55:00,
2013-04-06 21:05:00,59.7,17.4,29.97,North,-999,0.0,4.9,19,0.00,,,-99.99,FreeWX 2.04,2013-04-07 01:05:00,
2013-04-06 21:15:00,59.2,16.9,29.97,North,-999,0.0,3.6,19,0.00,,,-99.99,FreeWX 2.04,2013-04-07 01:15:00,
2013-04-06 21:25:00,58.8,16.7,29.97,North,-999,0.0,6.3,19,0.00,,,-99.99,FreeWX 2.04,2013-04-07 01:25:00,
2013-04-06 21:35:00,59.0,16.9,29.97,NNW,330,3.0,8.7,19,0.00,,,-99.99,FreeWX 2.04,2013-04-07 01:35:00,
2013-04-06 21:45:00,59.5,17.2,29.97,NNW,344,4.0,8.3,19,0.00,,,-99.99,FreeWX 2.04,2013-04-07 01:45:00,
2013-04-06 21:55:00,59.7,17.4,29.94,NNW,342,3.0,6.3,19,0.00,,,-99.99,FreeWX 2.04,2013-04-07 01:55:00,
2013-04-06 22:05:00,59.5,17.2,29.97,NNW,336,2.0,4.9,19,0.00,,,-99.99,FreeWX 2.04,2013-04-07 02:05:00,
2013-04-06 22:15:00,58.8,16.7,29.97,NW,312,1.0,4.9,19,0.00,,,-99.99,FreeWX 2.04,2013-04-07 02:15:00,
2013-04-06 22:25:00,58.1,16.2,29.97,NNW,338,2.0,6.7,19,0.00,,,-99.99,FreeWX 2.04,2013-04-07 02:25:00,
2013-04-06 22:35:00,57.7,15.8,29.97,North,-999,0.0,3.6,19,0.00,,,-99.99,FreeWX 2.04,2013-04-07 02:35:00,
2013-04-06 22:45:00,57.0,15.3,29.97,North,-999,0.0,4.5,19,0.00,,,-99.99,FreeWX 2.04,2013-04-07 02:45:00,
2013-04-06 22:55:00,56.7,14.9,29.97,North,-999,0.0,3.6,19,0.00,,,-99.99,FreeWX 2.04,2013-04-07 02:55:00,
2013-04-06 23:05:00,56.3,14.5,29.97,North,-999,0.0,4.0,19,0.00,,,-99.99,FreeWX 2.04,2013-04-07 03:05:00,
2013-04-06 23:15:00,56.1,15.6,29.97,NNW,342,2.0,5.8,20,0.00,,,-99.99,FreeWX 2.04,2013-04-07 03:15:00,
2013-04-06 23:25:00,55.9,15.4,29.97,North,350,2.0,4.9,20,0.00,,,-99.99,FreeWX 2.04,2013-04-07 03:25:00,
2013-04-06 23:35:00,55.9,15.4,29.97,NNW,337,2.0,4.5,20,0.00,,,-99.99,FreeWX 2.04,2013-04-07 03:35:00,
2013-04-06 23:45:00,56.1,15.6,29.97,NNW,335,2.0,4.9,20,0.00,,,-99.99,FreeWX 2.04,2013-04-07 03:45:00,
2013-04-06 23:55:00,55.9,15.4,29.97,NNW,335,2.0,4.5,20,0.00,,,-99.99,FreeWX 2.04,2013-04-07 03:55:00,